createdAt,value
2017-12-10T00:01:11.989Z,50.40
2017-12-10T00:03:39.656Z,50.50
2017-12-10T00:06:07.202Z,50.80
2017-12-10T00:08:34.783Z,50.10
2017-12-10T00:11:02.351Z,50.00
2017-12-10T00:13:29.937Z,50.50
2017-12-10T00:15:57.472Z,50.50
2017-12-10T00:18:25.036Z,51.30
2017-12-10T00:20:52.575Z,51.30
2017-12-10T00:23:22.123Z,51.30
2017-12-10T00:25:49.656Z,51.40
2017-12-10T00:28:19.163Z,51.50
2017-12-10T00:30:46.711Z,51.50
2017-12-10T00:33:14.281Z,51.90
2017-12-10T00:35:41.828Z,51.70
2017-12-10T00:38:09.695Z,51.50
2017-12-10T00:40:37.238Z,51.70
2017-12-10T00:43:04.807Z,52.00
2017-12-10T00:45:32.374Z,52.50
2017-12-10T00:48:01.922Z,53.10
2017-12-10T00:50:30.236Z,52.00
2017-12-10T00:52:57.799Z,52.00
2017-12-10T00:55:25.334Z,52.40
2017-12-10T00:57:52.904Z,52.10
2017-12-10T01:00:20.473Z,52.90
2017-12-10T01:02:48.199Z,51.80
2017-12-10T01:05:16.507Z,52.00
2017-12-10T01:07:44.083Z,52.00
2017-12-10T01:10:11.627Z,51.40
2017-12-10T01:12:39.259Z,51.80
2017-12-10T01:15:07.571Z,53.00
2017-12-10T01:17:35.142Z,53.00
2017-12-10T01:20:02.685Z,53.60
2017-12-10T01:22:31.081Z,55.20
2017-12-10T01:24:59.175Z,53.60
2017-12-10T01:27:28.679Z,53.10
2017-12-10T01:29:57.295Z,53.80
2017-12-10T01:32:25.289Z,53.30
2017-12-10T01:34:53.189Z,52.60
2017-12-10T01:37:21.520Z,53.00
2017-12-10T01:39:49.619Z,53.40
2017-12-10T01:42:17.556Z,53.60
2017-12-10T01:44:46.755Z,51.80
2017-12-10T01:47:14.329Z,51.30
2017-12-10T01:49:42.325Z,50.50
2017-12-10T01:52:10.329Z,50.40
2017-12-10T01:54:40.139Z,49.70
2017-12-10T01:57:09.037Z,49.80
2017-12-10T01:59:37.163Z,50.50
2017-12-10T02:02:05.772Z,49.70
2017-12-10T02:04:34.952Z,48.30
2017-12-10T02:07:02.892Z,49.00
2017-12-10T02:09:31.832Z,49.40
2017-12-10T02:12:00.044Z,48.90
2017-12-10T02:14:30.834Z,49.00
2017-12-10T02:17:00.467Z,48.80
2017-12-10T02:19:30.093Z,48.70
2017-12-10T02:21:59.188Z,48.60
2017-12-10T02:24:28.169Z,48.30
2017-12-10T02:26:57.264Z,48.60
2017-12-10T02:29:26.636Z,48.00
2017-12-10T02:31:54.508Z,48.30
2017-12-10T02:34:23.144Z,48.70
2017-12-10T02:36:52.740Z,49.10
2017-12-10T02:39:20.667Z,47.90
2017-12-10T02:41:49.614Z,47.40
2017-12-10T02:44:18.157Z,47.40
2017-12-10T02:46:46.610Z,48.20
2017-12-10T02:49:15.361Z,48.50
2017-12-10T02:51:44.235Z,48.30
2017-12-10T02:54:12.064Z,48.60
2017-12-10T02:56:40.457Z,48.00
2017-12-10T02:59:09.039Z,48.50
2017-12-10T03:01:37.376Z,48.00
2017-12-10T03:04:04.932Z,48.00
2017-12-10T03:06:32.529Z,47.80
2017-12-10T03:09:00.125Z,47.50
2017-12-10T03:11:27.691Z,47.90
2017-12-10T03:13:55.233Z,48.10
2017-12-10T03:16:22.788Z,48.20
2017-12-10T03:18:50.344Z,48.60
2017-12-10T03:21:17.899Z,47.70
2017-12-10T03:23:45.471Z,48.10
2017-12-10T03:26:13.019Z,48.10
2017-12-10T03:28:40.562Z,48.60
2017-12-10T03:31:08.954Z,48.00
2017-12-10T03:33:36.504Z,48.00
2017-12-10T03:36:05.539Z,48.20
2017-12-10T03:38:33.087Z,48.20
2017-12-10T03:41:00.658Z,49.10
2017-12-10T03:43:28.200Z,48.50
2017-12-10T03:45:55.770Z,48.80
2017-12-10T03:48:23.332Z,48.50
2017-12-10T03:50:50.897Z,49.00
2017-12-10T03:53:18.450Z,48.80
2017-12-10T03:55:46.204Z,48.60
2017-12-10T03:58:13.767Z,49.90
2017-12-10T04:00:41.345Z,50.20
2017-12-10T04:03:09.863Z,50.80
2017-12-10T04:05:37.403Z,50.60
2017-12-10T04:08:05.006Z,51.20
2017-12-10T04:10:32.546Z,50.00
2017-12-10T04:13:00.112Z,49.90
2017-12-10T04:15:27.653Z,51.20
2017-12-10T04:17:55.999Z,51.30
2017-12-10T04:20:24.304Z,51.30
2017-12-10T04:22:52.655Z,52.20
2017-12-10T04:25:20.199Z,52.20
2017-12-10T04:27:47.759Z,51.40
2017-12-10T04:30:16.265Z,51.20
2017-12-10T04:32:43.843Z,51.20
2017-12-10T04:35:11.409Z,51.20
2017-12-10T04:37:41.195Z,54.60
2017-12-10T04:40:08.731Z,54.60
2017-12-10T04:42:39.197Z,55.30
2017-12-10T04:45:07.493Z,56.00
2017-12-10T04:47:35.073Z,56.00
2017-12-10T04:50:02.632Z,57.00
2017-12-10T04:52:30.193Z,57.30
2017-12-10T04:54:58.610Z,57.60
2017-12-10T04:57:26.165Z,57.90
2017-12-10T05:00:06.299Z,57.80
2017-12-10T05:05:42.491Z,58.00
2017-12-10T05:14:13.684Z,59.40
2017-12-10T05:16:41.235Z,58.80
2017-12-10T05:19:09.623Z,58.70
2017-12-10T05:21:51.574Z,57.60
2017-12-10T05:24:20.418Z,57.80
2017-12-10T05:38:26.568Z,50.90
2017-12-10T05:46:58.997Z,55.70
2017-12-10T05:49:34.005Z,57.30
2017-12-10T05:52:07.294Z,57.70
2017-12-10T05:54:40.593Z,54.50
2017-12-10T06:00:08.627Z,53.10
2017-12-10T06:02:36.382Z,51.70
2017-12-10T06:08:03.261Z,49.30
2017-12-10T06:10:33.119Z,49.40
2017-12-10T06:13:01.652Z,52.50
2017-12-10T06:15:30.160Z,52.50
2017-12-10T06:17:57.715Z,55.20
2017-12-10T06:20:25.270Z,53.20
2017-12-10T06:22:55.510Z,53.10
2017-12-10T06:25:24.575Z,51.30
2017-12-10T06:27:52.139Z,49.70
2017-12-10T06:30:24.587Z,49.90
2017-12-10T06:32:54.035Z,49.00
2017-12-10T06:35:21.595Z,47.80
2017-12-10T06:37:49.145Z,46.90
2017-12-10T06:40:19.380Z,47.80
2017-12-10T06:42:50.872Z,48.30
2017-12-10T06:45:30.824Z,49.60
2017-12-10T06:50:56.579Z,47.30
2017-12-10T06:53:24.146Z,46.30
2017-12-10T06:56:05.897Z,46.70
2017-12-10T07:01:32.382Z,46.40
2017-12-10T07:06:46.203Z,46.20
2017-12-10T07:09:20.134Z,46.40
2017-12-10T07:11:47.716Z,46.20
2017-12-10T07:14:19.148Z,46.10
2017-12-10T07:16:47.519Z,46.10
2017-12-10T07:19:17.786Z,46.10
2017-12-10T07:24:27.900Z,44.10
2017-12-10T07:26:55.490Z,44.10
2017-12-10T07:29:24.011Z,41.60
2017-12-10T07:34:55.474Z,41.90
2017-12-10T07:37:23.037Z,43.30
2017-12-10T07:39:50.605Z,42.60
2017-12-10T07:42:18.142Z,41.60
2017-12-10T07:44:45.695Z,42.90
2017-12-10T07:47:13.268Z,42.10
2017-12-10T07:50:00.907Z,41.50
2017-12-10T07:52:32.684Z,41.50
2017-12-10T07:55:23.176Z,41.20
2017-12-10T07:57:56.416Z,41.80
2017-12-10T08:00:30.988Z,41.40
2017-12-10T08:09:07.706Z,41.40
2017-12-10T08:21:01.836Z,46.20
2017-12-10T08:23:30.274Z,48.60
2017-12-10T08:29:16.333Z,50.20
2017-12-10T08:37:27.643Z,54.20
2017-12-10T08:39:56.322Z,58.30
2017-12-10T08:42:25.399Z,60.00
2017-12-10T08:44:53.948Z,62.90
2017-12-10T08:47:23.672Z,64.90
2017-12-10T08:49:51.243Z,66.80
2017-12-10T08:52:22.782Z,67.20
2017-12-10T08:54:50.991Z,67.40
2017-12-10T08:57:20.083Z,69.80
2017-12-10T09:00:00.269Z,71.70
2017-12-10T09:02:40.802Z,72.10
2017-12-10T09:05:17.955Z,73.00
2017-12-10T09:07:45.556Z,75.10
2017-12-10T09:10:25.570Z,75.50
2017-12-10T09:12:54.101Z,76.20
2017-12-10T09:15:27.355Z,76.20
2017-12-10T09:17:56.134Z,77.50
2017-12-10T09:20:31.018Z,77.70
2017-12-10T09:23:05.784Z,78.40
2017-12-10T09:25:35.965Z,78.30
2017-12-10T09:28:17.008Z,79.50
2017-12-10T09:30:47.466Z,79.60
2017-12-10T09:33:43.772Z,80.70
2017-12-10T09:39:28.195Z,81.80
2017-12-10T09:42:00.837Z,81.90
2017-12-10T09:44:36.797Z,78.50
2017-12-10T09:49:46.812Z,77.30
2017-12-10T09:52:14.395Z,77.50
2017-12-10T09:54:50.756Z,76.60
2017-12-10T09:57:19.855Z,76.60
2017-12-10T09:59:50.128Z,77.20
2017-12-10T10:02:17.688Z,77.20
2017-12-10T10:04:45.238Z,78.30
2017-12-10T10:07:12.834Z,79.60
2017-12-10T10:09:41.094Z,76.30
2017-12-10T10:12:08.678Z,77.50
2017-12-10T10:14:36.213Z,74.60
2017-12-10T10:17:03.811Z,75.10
2017-12-10T10:19:32.167Z,73.50
2017-12-10T10:22:00.202Z,73.50
2017-12-10T10:24:27.772Z,72.50
2017-12-10T10:26:55.616Z,72.30
2017-12-10T10:32:19.246Z,72.40
2017-12-10T10:34:55.519Z,72.50
2017-12-10T10:37:30.141Z,73.90
2017-12-10T10:39:59.598Z,73.10
2017-12-10T10:48:31.629Z,72.00
2017-12-10T10:57:11.103Z,69.50
2017-12-10T10:59:56.695Z,70.40
2017-12-10T11:05:32.160Z,70.10
2017-12-10T11:11:00.052Z,70.70
2017-12-10T11:16:26.241Z,70.90
2017-12-10T11:19:06.310Z,71.90
2017-12-10T11:21:34.751Z,71.20
2017-12-10T11:24:02.819Z,71.30
2017-12-10T11:26:31.116Z,72.40
2017-12-10T11:28:58.683Z,72.40
2017-12-10T11:31:26.229Z,73.40
2017-12-10T11:33:53.795Z,74.10
2017-12-10T11:36:21.339Z,74.50
2017-12-10T11:38:49.691Z,75.20
2017-12-10T11:41:17.260Z,75.20
2017-12-10T11:43:45.611Z,77.10
2017-12-10T11:46:14.051Z,76.30
2017-12-10T11:48:42.571Z,76.40
2017-12-10T11:51:10.111Z,77.00
2017-12-10T11:53:37.690Z,76.60
2017-12-10T11:56:05.219Z,77.90
2017-12-10T11:58:32.745Z,77.60
2017-12-10T12:01:01.112Z,77.90
2017-12-10T12:03:29.571Z,78.60
2017-12-10T12:05:57.135Z,78.60
2017-12-10T12:08:24.819Z,78.00
2017-12-10T12:10:53.135Z,80.40
2017-12-10T12:13:20.708Z,80.40
2017-12-10T12:15:48.261Z,79.50
2017-12-10T12:18:15.796Z,79.90
2017-12-10T12:20:44.358Z,79.00
2017-12-10T12:23:12.677Z,80.30
2017-12-10T12:25:40.263Z,80.30
2017-12-10T12:28:08.607Z,83.60
2017-12-10T12:30:36.135Z,83.70
2017-12-10T12:33:04.655Z,82.00
2017-12-10T12:35:32.192Z,80.70
2017-12-10T12:37:59.719Z,80.20
2017-12-10T12:40:28.048Z,85.20
2017-12-10T12:42:55.588Z,85.30
2017-12-10T12:45:23.440Z,83.10
2017-12-10T12:47:51.936Z,83.60
2017-12-10T12:50:19.488Z,83.80
2017-12-10T12:52:47.094Z,83.50
2017-12-10T12:55:14.628Z,82.60
2017-12-10T12:57:42.177Z,83.70
2017-12-10T13:00:09.748Z,83.20
2017-12-10T13:02:37.288Z,82.80
2017-12-10T13:05:04.807Z,83.40
2017-12-10T13:07:35.785Z,82.40
2017-12-10T13:10:04.409Z,82.30
2017-12-10T13:12:32.032Z,82.40
2017-12-10T13:14:59.587Z,82.30
2017-12-10T13:17:27.162Z,82.70
2017-12-10T13:19:54.695Z,83.70
2017-12-10T13:22:22.235Z,84.10
2017-12-10T13:24:50.561Z,84.10
2017-12-10T13:27:18.131Z,84.10
2017-12-10T13:29:46.631Z,83.30
2017-12-10T13:32:14.232Z,83.30
2017-12-10T13:34:41.760Z,82.70
2017-12-10T13:37:10.152Z,81.40
2017-12-10T13:39:37.711Z,81.40
2017-12-10T13:42:05.247Z,81.10
2017-12-10T13:44:32.811Z,80.80
2017-12-10T13:47:01.111Z,80.00
2017-12-10T13:49:28.675Z,80.00
2017-12-10T13:51:57.046Z,78.20
2017-12-10T13:54:25.829Z,79.00
2017-12-10T13:56:53.490Z,77.30
2017-12-10T13:59:21.093Z,76.50
2017-12-10T14:01:48.625Z,76.40
2017-12-10T14:04:16.195Z,75.60
2017-12-10T14:06:43.742Z,76.00
2017-12-10T14:09:11.321Z,76.20
2017-12-10T14:11:38.864Z,75.80
2017-12-10T14:14:06.399Z,75.30
2017-12-10T14:16:41.642Z,74.30
2017-12-10T14:19:09.222Z,74.90
2017-12-10T14:21:37.756Z,76.80
2017-12-10T14:24:06.117Z,77.10
2017-12-10T14:26:33.792Z,77.20
2017-12-10T14:29:02.212Z,76.00
2017-12-10T14:31:31.042Z,76.00
2017-12-10T14:33:58.700Z,75.70
2017-12-10T14:36:27.709Z,76.90
2017-12-10T14:40:27.114Z,79.50
2017-12-10T14:42:56.825Z,78.60
2017-12-10T14:45:28.176Z,80.40
2017-12-10T14:48:04.990Z,82.20
2017-12-10T14:50:33.777Z,84.50
2017-12-10T14:53:03.877Z,84.20
2017-12-10T14:55:33.590Z,84.80
2017-12-10T14:58:03.010Z,85.10
2017-12-10T15:00:32.700Z,84.90
2017-12-10T15:03:01.832Z,84.30
2017-12-10T15:05:31.336Z,82.80
2017-12-10T15:08:00.956Z,82.70
2017-12-10T15:10:31.248Z,81.00
2017-12-10T15:15:44.182Z,80.00
2017-12-10T15:18:17.460Z,78.50
2017-12-10T15:22:56.024Z,77.40
2017-12-10T15:25:23.698Z,75.60
2017-12-10T15:27:51.267Z,76.40
2017-12-10T15:30:18.844Z,74.90
2017-12-10T15:32:46.393Z,74.10
2017-12-10T15:35:13.968Z,74.30
2017-12-10T15:37:41.513Z,73.70
2017-12-10T15:40:09.087Z,72.50
2017-12-10T15:42:36.620Z,72.50
2017-12-10T15:45:04.172Z,72.20
2017-12-10T15:47:31.819Z,72.70
2017-12-10T15:49:59.420Z,72.10
2017-12-10T15:52:26.962Z,72.20
2017-12-10T15:54:54.528Z,71.90
2017-12-10T15:57:22.259Z,71.50
2017-12-10T15:59:49.818Z,71.20
2017-12-10T16:02:17.461Z,70.70
2017-12-10T16:04:45.034Z,70.90
2017-12-10T16:07:12.570Z,71.30
2017-12-10T16:09:40.887Z,69.70
2017-12-10T16:12:08.432Z,69.80
2017-12-10T16:14:35.990Z,70.60
2017-12-10T16:17:03.573Z,70.80
2017-12-10T16:19:31.128Z,70.60
2017-12-10T16:21:58.653Z,70.10
2017-12-10T16:24:26.203Z,70.10
2017-12-10T16:26:53.731Z,69.90
2017-12-10T16:29:21.542Z,69.40
2017-12-10T16:31:49.086Z,68.10
2017-12-10T16:34:16.651Z,67.40
2017-12-10T16:36:44.196Z,67.80
2017-12-10T16:39:12.728Z,67.00
2017-12-10T16:41:41.243Z,66.30
2017-12-10T16:44:09.596Z,66.20
2017-12-10T16:46:37.184Z,66.00
2017-12-10T16:49:04.764Z,66.10
2017-12-10T16:51:32.552Z,65.90
2017-12-10T16:54:00.168Z,65.50
2017-12-10T16:56:28.509Z,66.00
2017-12-10T16:58:56.083Z,66.00
2017-12-10T17:01:23.702Z,65.20
2017-12-10T17:03:51.324Z,65.80
2017-12-10T17:06:20.631Z,65.70
2017-12-10T17:08:48.960Z,64.80
2017-12-10T17:11:16.496Z,65.50
2017-12-10T17:13:44.051Z,65.30
2017-12-10T17:16:11.640Z,64.80
2017-12-10T17:18:39.198Z,64.90
2017-12-10T17:21:07.719Z,64.90
2017-12-10T17:23:35.285Z,64.70
2017-12-10T17:26:03.675Z,63.50
2017-12-10T17:28:31.997Z,63.20
2017-12-10T17:30:59.588Z,64.20
2017-12-10T17:33:27.134Z,63.50
2017-12-10T17:35:54.736Z,62.80
2017-12-10T17:38:23.135Z,61.40
2017-12-10T17:40:50.671Z,61.50
2017-12-10T17:43:18.231Z,60.30
2017-12-10T17:45:45.775Z,61.00
2017-12-10T17:48:13.328Z,61.30
2017-12-10T17:50:40.906Z,55.40
2017-12-10T17:53:08.450Z,56.80
2017-12-10T17:55:36.056Z,54.90
2017-12-10T17:58:04.684Z,54.80
2017-12-10T18:00:33.689Z,56.20
2017-12-10T18:03:01.528Z,57.30
2017-12-10T18:05:29.077Z,57.70
2017-12-10T18:07:56.614Z,57.90
2017-12-10T18:10:24.358Z,60.10
2017-12-10T18:12:52.250Z,61.60
2017-12-10T18:15:19.855Z,63.30
2017-12-10T18:17:47.420Z,64.60
2017-12-10T18:20:14.971Z,67.00
2017-12-10T18:22:42.564Z,67.10
2017-12-10T18:25:10.102Z,68.20
2017-12-10T18:27:37.659Z,67.50
2017-12-10T18:30:06.221Z,67.70
2017-12-10T18:32:34.511Z,68.50
2017-12-10T18:35:02.141Z,69.00
2017-12-10T18:37:30.767Z,67.30
2017-12-10T18:39:59.124Z,67.70
2017-12-10T18:42:26.980Z,67.70
2017-12-10T18:44:54.567Z,67.20
2017-12-10T18:47:24.016Z,66.40
2017-12-10T18:49:53.564Z,66.40
2017-12-10T18:52:22.059Z,65.00
2017-12-10T18:54:50.403Z,61.10
2017-12-10T18:57:18.047Z,61.10
2017-12-10T18:59:45.618Z,63.00
2017-12-10T19:02:13.188Z,63.00
2017-12-10T19:04:40.848Z,64.80
2017-12-10T19:07:08.400Z,64.40
2017-12-10T19:09:36.250Z,64.80
2017-12-10T19:12:04.737Z,65.00
2017-12-10T19:14:32.319Z,65.20
2017-12-10T19:16:59.887Z,65.70
2017-12-10T19:19:27.598Z,65.60
2017-12-10T19:21:56.114Z,65.90
2017-12-10T19:24:23.669Z,66.70
2017-12-10T19:26:51.195Z,66.90
2017-12-10T19:29:18.856Z,67.10
2017-12-10T19:31:46.401Z,67.00
2017-12-10T19:34:13.938Z,66.70
2017-12-10T19:36:44.449Z,66.50
2017-12-10T19:39:12.754Z,68.00
2017-12-10T19:41:41.116Z,67.30
2017-12-10T19:44:08.931Z,67.30
2017-12-10T19:46:36.508Z,67.60
2017-12-10T19:49:04.095Z,68.80
2017-12-10T19:51:31.638Z,69.20
2017-12-10T19:53:59.276Z,68.40
2017-12-10T19:56:26.820Z,66.60
2017-12-10T19:58:54.404Z,67.80
2017-12-10T20:01:21.941Z,68.10
2017-12-10T20:03:49.533Z,67.70
2017-12-10T20:06:17.083Z,67.00
2017-12-10T20:08:45.870Z,68.00
2017-12-10T20:11:13.435Z,67.90
2017-12-10T20:13:40.983Z,67.70
2017-12-10T20:16:08.580Z,66.80
2017-12-10T20:18:36.154Z,67.10
2017-12-10T20:21:05.485Z,66.50
2017-12-10T20:23:33.104Z,66.50
2017-12-10T20:26:00.679Z,66.70
2017-12-10T20:28:28.247Z,66.50
2017-12-10T20:30:55.795Z,67.30
2017-12-10T20:33:23.376Z,66.90
2017-12-10T20:35:50.906Z,67.10
2017-12-10T20:38:18.449Z,66.90
2017-12-10T20:40:46.057Z,66.30
2017-12-10T20:43:14.566Z,66.70
2017-12-10T20:45:42.136Z,66.90
2017-12-10T20:48:09.666Z,66.20
2017-12-10T20:50:37.271Z,66.20
2017-12-10T20:53:04.839Z,66.80
2017-12-10T20:55:32.450Z,65.80
2017-12-10T20:57:59.995Z,65.60
2017-12-10T21:00:28.557Z,65.90
2017-12-10T21:02:56.066Z,65.50
2017-12-10T21:05:23.680Z,64.80
2017-12-10T21:07:51.240Z,65.00
2017-12-10T21:10:18.787Z,65.00
2017-12-10T21:12:47.118Z,64.90
2017-12-10T21:15:14.654Z,64.90
2017-12-10T21:17:42.217Z,65.20
2017-12-10T21:20:09.756Z,65.30
2017-12-10T21:22:37.274Z,65.30
2017-12-10T21:25:06.515Z,66.10
2017-12-10T21:27:35.034Z,66.20
2017-12-10T21:30:02.767Z,66.60
2017-12-10T21:32:30.325Z,66.20
2017-12-10T21:34:57.857Z,65.80
2017-12-10T21:37:26.354Z,66.30
2017-12-10T21:39:53.908Z,66.70
2017-12-10T21:42:21.443Z,66.70
2017-12-10T21:44:49.000Z,66.60
2017-12-10T21:47:17.303Z,66.10
2017-12-10T21:49:45.619Z,66.10
2017-12-10T21:52:13.183Z,66.20
2017-12-10T21:54:40.705Z,65.70
2017-12-10T21:57:08.231Z,66.20
2017-12-10T21:59:35.828Z,65.80
2017-12-10T22:02:03.363Z,66.10
2017-12-10T22:04:33.827Z,65.60
2017-12-10T22:07:01.362Z,65.60
2017-12-10T22:09:28.896Z,65.70
2017-12-10T22:11:57.219Z,65.40
2017-12-10T22:14:24.765Z,65.30
2017-12-10T22:16:52.328Z,66.90
2017-12-10T22:19:19.851Z,67.60
2017-12-10T22:21:48.357Z,68.10
2017-12-10T22:24:15.932Z,68.40
2017-12-10T22:26:43.535Z,70.20
2017-12-10T22:29:11.078Z,70.50
2017-12-10T22:31:38.615Z,71.40
2017-12-10T22:34:06.167Z,71.80
2017-12-10T22:36:33.733Z,71.50
2017-12-10T22:39:01.363Z,72.20
2017-12-10T22:41:29.060Z,72.40
2017-12-10T22:43:56.720Z,73.30
2017-12-10T22:46:24.296Z,73.20
2017-12-10T22:48:52.667Z,74.40
2017-12-10T22:51:21.241Z,74.40
2017-12-10T22:53:49.749Z,77.40
2017-12-10T22:56:17.332Z,79.80
2017-12-10T22:58:45.625Z,83.60
2017-12-10T23:01:14.091Z,83.60
2017-12-10T23:03:42.450Z,82.50
2017-12-10T23:06:09.988Z,82.60
2017-12-10T23:08:37.506Z,83.50
2017-12-10T23:11:05.060Z,84.20
2017-12-10T23:13:45.253Z,82.50
2017-12-10T23:16:25.575Z,82.40
2017-12-10T23:18:53.098Z,83.00
2017-12-10T23:21:21.421Z,82.70
2017-12-10T23:23:48.948Z,82.70
2017-12-10T23:26:16.475Z,82.60
2017-12-10T23:28:44.034Z,85.60
2017-12-10T23:31:11.572Z,82.00
2017-12-10T23:33:39.151Z,82.70
2017-12-10T23:36:06.679Z,83.00
2017-12-10T23:38:34.215Z,82.90
2017-12-10T23:41:02.531Z,86.80
2017-12-10T23:43:30.136Z,86.80
2017-12-10T23:45:58.447Z,83.40
2017-12-10T23:48:26.015Z,83.40
2017-12-10T23:50:53.551Z,84.30
2017-12-10T23:53:21.132Z,84.30
2017-12-10T23:55:48.663Z,86.10
2017-12-10T23:58:16.246Z,84.40
